Main page
METAR-TAF:

METAR-TAF

Airports :

Memmingen, Germany

latitude: 47-59-33N, longitude: 10-14-37E, elevation: 633 m

Current weather observation

The report was made 24 minutes ago, at 12:20 UTC
Wind 12 kt from the Northeast
Temperature 17°C
Humidity 59%
Pressure 1019 hPa
Visibility 10 km or more
no clouds below 1500 m and no cumulonimbus

METAR: EDJA 181220Z 05012KT CAVOK 17/09 Q1019

Time: 14:44 (12:44 UTC)

Forecast

The report was made 1 hour and 44 minutes ago, at 11:00 UTC
Forecast valid from 18 at 12 UTC to 18 at 21 UTC
Wind 9 kt from the East/Northeast
Visibility 10 km or more
no clouds below 1500 m and no cumulonimbus
Becoming
from 18 at 15 UTC to 18 at 17 UTC
Wind 4 kt from the East/Northeast

TAF: EDJA 181100Z 1812/1821 06009KT CAVOK BECMG 1815/1817 06004KT

Weather observations and forecasts of more than 4000 airports (METAR and TAF reports).

The available stations are represented by yellow and red dots on the map.

Hover mouse over dot to see the name of the station.

Then click to see weather observations and forecasts.

To change the map : click on the green buttons with a black cross to zoom in, on the green button with a dash to zoom out, or on the green arrows for adjacent maps.


METAR-TAF: